Time;durP1;ratioP1;P1;durP2;ratioP2;P2;SDS_P1;SDS_P2;PMS_P1;PMS_P2;Temp;Humidity;BMP_temperature;BMP_pressure;BME280_temperature;BME280_humidity;BME280_pressure;Samples;Min_cycle;Max_cycle;Signal;HPM_P1;HPM_P2
2023/04/18 00:00:51;;;;;;;2.13;1.90;;;22.30;48.50;;;;;;6345286;28;19920;-44
2023/04/18 00:03:53;;;;;;;;;;;22.40;48.50;;;;;;6346308;28;20044;-43
2023/04/18 00:06:57;;;;;;;1.85;1.40;;;21.70;48.30;;;;;;6344755;28;19942;-44
2023/04/18 00:09:59;;;;;;;1.50;1.40;;;21.70;47.80;;;;;;6342269;28;20039;-44
2023/04/18 00:13:03;;;;;;;1.90;1.60;;;22.10;48.30;;;;;;6343370;28;20044;-45
2023/04/18 00:16:07;;;;;;;1.90;1.70;;;22.30;45.10;;;;;;6342391;28;20054;-44
2023/04/18 00:19:13;;;;;;;1.77;1.67;;;21.80;47.90;;;;;;6342352;28;20043;-45
2023/04/18 00:22:21;;;;;;;1.88;1.55;;;21.70;48.20;;;;;;6342400;28;20090;-45
2023/04/18 00:25:22;;;;;;;1.77;1.52;;;22.10;48.20;;;;;;6340642;28;20109;-45
2023/04/18 00:28:24;;;;;;;1.70;1.60;;;21.60;48.20;;;;;;6341828;28;20075;-44
2023/04/18 00:31:25;;;;;;;;;;;22.00;48.20;;;;;;6344718;28;20511;-44
2023/04/18 00:34:27;;;;;;;1.70;1.60;;;21.60;48.30;;;;;;6342507;28;20372;-44
2023/04/18 00:37:29;;;;;;;;;;;21.80;48.10;;;;;;6337551;28;20047;-46
2023/04/18 00:40:30;;;;;;;2.10;1.90;;;21.70;48.30;;;;;;6337331;28;19927;-45
2023/04/18 00:43:33;;;;;;;1.80;1.60;;;21.70;48.90;;;;;;6341060;28;20044;-45
2023/04/18 00:46:35;;;;;;;1.70;1.60;;;21.70;48.30;;;;;;6343021;28;20047;-44
2023/04/18 00:49:37;;;;;;;1.88;1.67;;;21.70;48.20;;;;;;6340372;28;20052;-46
2023/04/18 00:52:40;;;;;;;1.75;1.55;;;21.30;48.20;;;;;;6344934;28;20040;-44
2023/04/18 00:55:41;;;;;;;2.13;1.88;;;22.10;48.40;;;;;;6346689;28;20044;-43
2023/04/18 00:58:46;;;;;;;1.65;1.45;;;21.50;48.40;;;;;;6345118;28;20040;-44
2023/04/18 01:01:47;;;;;;;;;;;21.90;48.60;;;;;;6349317;28;20092;-45
2023/04/18 01:04:49;;;;;;;1.92;1.73;;;21.70;48.80;;;;;;6316344;28;20004;-44
2023/04/18 01:07:57;;;;;;;1.98;1.75;;;21.50;48.40;;;;;;6336471;28;20105;-47
2023/04/18 01:10:59;;;;;;;1.80;1.60;;;21.60;48.00;;;;;;6324454;28;20484;-50
2023/04/18 01:14:01;;;;;;;1.80;1.70;;;22.00;48.80;;;;;;6324015;28;20449;-50
2023/04/18 01:17:02;;;;;;;3.13;1.80;;;21.70;48.60;;;;;;6324071;28;20052;-48
2023/04/18 01:20:05;;;;;;;;;;;21.40;48.60;;;;;;6352299;22;20459;-48
2023/04/18 01:23:09;;;;;;;2.20;1.92;;;21.70;48.60;;;;;;6349577;28;19920;-51
2023/04/18 01:26:13;;;;;;;2.00;1.80;;;21.50;48.40;;;;;;6349927;28;20397;-49
2023/04/18 01:29:15;;;;;;;2.08;1.88;;;21.60;48.60;;;;;;6347893;28;20059;-48
2023/04/18 01:32:19;;;;;;;2.55;2.30;;;21.70;48.80;;;;;;6348098;28;20036;-50
2023/04/18 01:35:21;;;;;;;2.50;2.30;;;21.90;48.70;;;;;;6349361;28;20502;-49
2023/04/18 01:38:22;;;;;;;;;;;21.80;48.70;;;;;;6349678;28;20436;-49
2023/04/18 01:41:31;;;;;;;2.08;1.70;;;21.80;49.10;;;;;;6349214;28;19919;-51
2023/04/18 01:44:32;;;;;;;2.10;1.88;;;21.80;66.80;;;;;;6349503;28;20088;-51
2023/04/18 01:47:33;;;;;;;;;;;21.90;48.80;;;;;;6349736;28;20433;-51
2023/04/18 01:50:35;;;;;;;1.98;1.80;;;21.30;48.70;;;;;;6349103;28;20031;-48
2023/04/18 01:53:36;;;;;;;;;;;21.50;48.50;;;;;;6349947;28;20043;-49
2023/04/18 01:56:38;;;;;;;1.90;1.70;;;21.40;48.80;;;;;;6349188;28;20010;-51
2023/04/18 01:59:40;;;;;;;2.35;2.15;;;21.70;48.80;;;;;;6348519;28;20047;-48
2023/04/18 02:02:41;;;;;;;;;;;21.50;48.60;;;;;;6349507;28;20048;-50
2023/04/18 02:05:43;;;;;;;2.13;1.90;;;21.70;49.00;;;;;;6348800;28;19920;-48
2023/04/18 02:08:44;;;;;;;;;;;21.80;48.70;;;;;;6349149;28;20051;-49
2023/04/18 02:11:48;;;;;;;2.17;1.90;;;21.70;66.60;;;;;;6348809;28;20010;-48
2023/04/18 02:14:51;;;;;;;2.40;1.95;;;21.80;48.60;;;;;;6349234;28;20034;-52
2023/04/18 02:17:53;;;;;;;2.08;1.88;;;21.60;48.40;;;;;;6330603;28;20047;-49
2023/04/18 02:20:57;;;;;;;2.33;2.03;;;21.30;48.50;;;;;;6348894;28;20072;-50
2023/04/18 02:23:58;;;;;;;;;;;21.40;48.60;;;;;;6349018;28;20036;-50
2023/04/18 02:27:01;;;;;;;2.25;1.85;;;21.30;48.80;;;;;;6348412;28;19926;-50
2023/04/18 02:30:03;;;;;;;2.17;1.98;;;21.70;47.80;;;;;;6312898;28;20043;-49
2023/04/18 02:33:08;;;;;;;2.72;2.50;;;21.60;48.40;;;;;;6348392;28;20036;-51
2023/04/18 02:36:11;;;;;;;;;;;21.40;48.50;;;;;;6348655;28;20043;-51
2023/04/18 02:39:12;;;;;;;2.58;2.10;;;21.30;48.60;;;;;;6348520;28;20433;-52
2023/04/18 02:42:14;;;;;;;;;;;21.30;48.10;;;;;;6349204;28;20036;-49
2023/04/18 02:45:15;;;;;;;2.63;2.28;;;22.00;49.00;;;;;;6348047;28;19920;-50
2023/04/18 02:48:17;;;;;;;;;;;21.30;48.50;;;;;;6348670;28;20044;-48
2023/04/18 02:51:19;;;;;;;2.88;2.58;;;21.50;48.80;;;;;;6348007;28;19926;-50
2023/04/18 02:54:23;;;;;;;2.75;2.47;;;21.60;48.60;;;;;;6347897;28;20071;-51
2023/04/18 02:57:32;;;;;;;2.67;2.47;;;21.60;48.50;;;;;;6346623;28;20047;-50
2023/04/18 03:00:48;;;;;;;2.55;2.35;;;21.60;48.50;;;;;;6347993;28;20042;-51
2023/04/18 03:04:03;;;;;;;2.50;2.30;;;21.30;48.40;;;;;;6347805;28;20047;-51
2023/04/18 03:07:09;;;;;;;3.00;2.70;;;21.70;48.70;;;;;;6346490;28;20109;-50
2023/04/18 03:10:13;;;;;;;2.70;2.47;;;21.60;48.70;;;;;;6347894;28;20054;-49
2023/04/18 03:13:16;;;;;;;3.40;2.88;;;20.90;48.00;;;;;;6346809;28;20043;-48
2023/04/18 03:16:19;;;;;;;2.92;2.65;;;21.40;48.40;;;;;;6347444;28;20470;-51
2023/04/18 03:19:22;;;;;;;2.95;2.65;;;21.60;48.70;;;;;;6347562;28;20055;-51
2023/04/18 03:22:25;;;;;;;3.15;2.85;;;21.50;48.70;;;;;;6347409;28;20067;-51
2023/04/18 03:25:30;;;;;;;3.50;3.20;;;21.60;48.60;;;;;;6347375;28;20055;-50
2023/04/18 03:28:33;;;;;;;3.38;3.00;;;21.30;48.50;;;;;;6328515;28;20071;-50
2023/04/18 03:31:35;;;;;;;3.10;2.65;;;21.50;48.60;;;;;;6347348;28;20051;-49
2023/04/18 03:34:37;;;;;;;3.10;2.80;;;21.50;48.60;;;;;;6347219;28;20058;-47
2023/04/18 03:37:42;;;;;;;3.22;2.58;;;21.40;48.60;;;;;;6347711;28;20055;-50
2023/04/18 03:40:45;;;;;;;3.15;2.83;;;21.50;48.70;;;;;;6347693;28;20402;-52
2023/04/18 03:44:00;;;;;;;2.78;2.58;;;21.20;48.40;;;;;;6347871;28;20058;-49
2023/04/18 03:47:10;;;;;;;3.30;3.00;;;21.60;48.90;;;;;;6347031;28;20050;-50
2023/04/18 03:50:15;;;;;;;3.10;2.80;;;21.10;48.00;;;;;;6345718;28;20047;-48
2023/04/18 03:53:19;;;;;;;3.20;2.90;;;21.20;48.60;;;;;;6347041;28;20136;-49
2023/04/18 03:56:20;;;;;;;;;;;21.50;48.80;;;;;;6347133;28;20567;-50
2023/04/18 03:59:25;;;;;;;2.83;2.53;;;21.10;49.00;;;;;;6346999;28;19989;-50
2023/04/18 04:02:32;;;;;;;3.33;2.97;;;21.00;48.60;;;;;;6346826;28;20177;-48
2023/04/18 04:05:33;;;;;;;3.40;3.10;;;21.40;48.60;;;;;;6346649;28;20050;-50
2023/04/18 04:08:35;;;;;;;3.53;3.05;;;21.50;48.90;;;;;;6347154;28;20104;-51
2023/04/18 04:11:37;;;;;;;3.17;2.88;;;21.40;48.90;;;;;;6346812;28;20046;-51
2023/04/18 04:14:45;;;;;;;3.85;3.10;;;21.30;48.90;;;;;;6346677;28;20048;-51
2023/04/18 04:17:47;;;;;;;3.22;2.90;;;21.20;49.00;;;;;;6346725;28;20046;-52
2023/04/18 04:20:49;;;;;;;2.83;2.55;;;21.20;49.00;;;;;;6346485;28;20048;-49
2023/04/18 04:24:08;;;;;;;3.70;3.33;;;21.80;48.80;;;;;;6348372;28;20035;-50
2023/04/18 04:27:14;;;;;;;3.50;3.20;;;21.20;49.20;;;;;;6351122;28;20039;-51
2023/04/18 04:30:17;;;;;;;3.25;2.95;;;21.30;49.20;;;;;;6350744;28;20079;-48
2023/04/18 04:33:23;;;;;;;4.03;3.42;;;21.10;49.20;;;;;;6350708;28;20402;-49
2023/04/18 04:36:26;;;;;;;3.83;3.28;;;21.40;49.30;;;;;;6349811;28;20059;-49
2023/04/18 04:39:33;;;;;;;3.67;3.13;;;21.20;68.60;;;;;;6332884;28;20047;-51
2023/04/18 04:42:47;;;;;;;3.90;3.45;;;21.20;50.80;;;;;;6350604;28;20043;-51
2023/04/18 04:45:56;;;;;;;3.95;3.55;;;21.30;49.20;;;;;;6350467;28;20130;-50
2023/04/18 04:48:58;;;;;;;4.05;3.65;;;21.20;49.60;;;;;;6351063;28;20036;-49
2023/04/18 04:52:02;;;;;;;3.30;2.97;;;21.50;49.60;;;;;;6349094;28;20050;-51
2023/04/18 04:55:04;;;;;;;3.63;3.33;;;21.40;49.60;;;;;;6350166;28;20040;-52
2023/04/18 04:58:06;;;;;;;3.55;3.25;;;21.40;49.60;;;;;;6350606;28;20039;-51
2023/04/18 05:01:26;;;;;;;3.70;3.30;;;21.50;49.80;;;;;;6349608;28;20038;-47
2023/04/18 05:04:28;;;;;;;3.58;3.28;;;20.80;49.60;;;;;;6350008;28;20052;-50
2023/04/18 05:07:30;;;;;;;3.42;3.13;;;21.20;49.80;;;;;;6350342;28;20082;-50
2023/04/18 05:10:31;;;;;;;4.00;3.60;;;21.30;49.80;;;;;;6350058;28;20088;-50
2023/04/18 05:13:33;;;;;;;4.05;3.65;;;21.30;49.80;;;;;;6349753;28;20521;-46
2023/04/18 05:16:35;;;;;;;3.50;3.03;;;21.00;49.70;;;;;;6349179;28;20051;-49
2023/04/18 05:19:36;;;;;;;3.05;2.75;;;21.30;49.80;;;;;;6349910;28;20039;-51
2023/04/18 05:22:38;;;;;;;3.28;2.97;;;21.50;50.00;;;;;;6350056;28;20081;-48
2023/04/18 05:25:39;;;;;;;;;;;21.30;50.00;;;;;;6350516;28;20043;-51
2023/04/18 05:28:42;;;;;;;3.85;3.45;;;21.40;50.10;;;;;;6349590;28;19920;-49
2023/04/18 05:31:44;;;;;;;4.20;3.80;;;21.10;49.80;;;;;;6349584;28;20048;-49
2023/04/18 05:34:45;;;;;;;4.32;3.55;;;21.10;49.80;;;;;;6349103;28;20044;-51
2023/04/18 05:37:47;;;;;;;3.95;3.45;;;20.90;49.90;;;;;;6349239;28;20092;-49
2023/04/18 05:40:49;;;;;;;;;;;21.40;50.20;;;;;;6350539;28;20047;-51
2023/04/18 05:43:51;;;;;;;5.43;3.72;;;21.30;50.30;;;;;;6349964;28;19920;-50
2023/04/18 05:47:07;;;;;;;3.63;3.33;;;21.40;50.10;;;;;;6349298;28;20387;-51
2023/04/18 05:50:09;;;;;;;4.72;4.18;;;21.30;50.10;;;;;;6349747;28;20047;-49
2023/04/18 05:53:10;;;;;;;3.60;3.30;;;19.80;49.40;;;;;;6349600;28;20404;-49
2023/04/18 05:56:11;;;;;;;;;;;21.20;50.40;;;;;;6349583;28;20044;-51
2023/04/18 05:59:13;;;;;;;4.07;3.40;;;21.30;50.80;;;;;;6348897;28;19957;-48
2023/04/18 06:02:15;;;;;;;4.32;3.70;;;21.30;50.50;;;;;;6348724;28;20517;-50
2023/04/18 06:05:17;;;;;;;8.98;4.10;;;21.30;50.30;;;;;;6349022;28;20063;-50
2023/04/18 06:08:19;;;;;;;4.13;3.72;;;21.20;50.60;;;;;;6348651;28;20051;-49
2023/04/18 06:11:20;;;;;;;;;;;21.30;50.60;;;;;;6348795;28;20460;-48
2023/04/18 06:14:22;;;;;;;3.95;3.55;;;21.80;51.20;;;;;;6348884;28;19923;-48
2023/04/18 06:17:27;;;;;;;4.05;3.45;;;21.40;50.10;;;;;;6348646;28;20055;-47
2023/04/18 06:20:28;;;;;;;4.32;3.90;;;20.90;50.10;;;;;;6348835;28;20166;-48
2023/04/18 06:23:30;;;;;;;;;;;20.90;49.80;;;;;;6348425;28;20039;-50
2023/04/18 06:26:31;;;;;;;4.47;3.83;;;21.80;50.80;;;;;;6347058;28;20326;-48
2023/04/18 06:29:33;;;;;;;5.28;4.07;;;20.90;50.10;;;;;;6348683;28;20135;-51
2023/04/18 06:32:36;;;;;;;4.03;3.63;;;21.10;50.30;;;;;;6348431;28;20073;-50
2023/04/18 06:35:38;;;;;;;4.80;4.30;;;21.30;50.50;;;;;;6347831;28;20123;-53
2023/04/18 06:38:39;;;;;;;;;;;21.40;50.80;;;;;;6348242;28;20044;-51
2023/04/18 06:41:40;;;;;;;4.55;4.07;;;21.50;51.00;;;;;;6348157;28;19919;-52
2023/04/18 06:44:42;;;;;;;4.00;3.58;;;21.40;50.70;;;;;;6348140;28;20050;-52
2023/04/18 06:47:46;;;;;;;5.97;4.07;;;21.40;50.60;;;;;;6347649;28;20055;-52
2023/04/18 06:50:47;;;;;;;4.60;4.10;;;21.50;50.40;;;;;;6348578;28;20067;-53
2023/04/18 06:53:51;;;;;;;4.28;3.88;;;21.50;50.70;;;;;;6347934;28;20044;-52
2023/04/18 06:56:53;;;;;;;4.63;3.75;;;21.40;50.20;;;;;;6347699;28;20491;-53
2023/04/18 06:59:57;;;;;;;3.80;3.40;;;21.90;50.00;;;;;;6346433;28;20044;-52
2023/04/18 07:03:01;;;;;;;4.22;3.83;;;21.50;49.80;;;;;;6348300;28;20043;-52
2023/04/18 07:06:04;;;;;;;3.95;3.55;;;21.50;50.10;;;;;;6349480;28;20047;-53
2023/04/18 07:09:06;;;;;;;4.28;3.85;;;21.60;50.20;;;;;;6347987;28;20128;-52
2023/04/18 07:12:07;;;;;;;;;;;21.50;49.80;;;;;;6347672;28;20062;-50
2023/04/18 07:15:12;;;;;;;4.75;4.25;;;22.00;50.60;;;;;;6347640;28;19946;-53
2023/04/18 07:18:15;;;;;;;4.68;4.00;;;21.80;47.00;;;;;;6350614;28;20047;-53
2023/04/18 07:21:28;;;;;;;4.43;4.03;;;22.10;50.40;;;;;;6351795;28;20044;-54
2023/04/18 07:24:29;;;;;;;4.75;4.25;;;21.60;49.90;;;;;;6351798;28;20039;-52
2023/04/18 07:27:33;;;;;;;4.30;3.70;;;21.70;49.50;;;;;;6350295;28;20044;-54
2023/04/18 07:30:35;;;;;;;4.35;3.92;;;21.60;49.50;;;;;;6346766;28;20036;-49
2023/04/18 07:33:37;;;;;;;4.43;4.03;;;21.70;49.40;;;;;;6350838;28;20055;-54
2023/04/18 07:36:40;;;;;;;4.35;3.95;;;21.80;49.70;;;;;;6353988;28;20379;-53
2023/04/18 07:39:41;;;;;;;4.93;4.32;;;21.40;49.30;;;;;;6347343;28;20048;-55
2023/04/18 07:42:42;;;;;;;;;;;21.80;49.70;;;;;;6348372;28;20040;-53
2023/04/18 07:45:44;;;;;;;4.65;4.10;;;21.60;49.60;;;;;;6347670;28;19920;-50
2023/04/18 07:48:49;;;;;;;4.65;4.25;;;21.90;49.80;;;;;;6311653;28;20050;-52
2023/04/18 07:51:51;;;;;;;6.50;4.50;;;21.50;49.30;;;;;;6348426;28;20073;-51
2023/04/18 07:54:55;;;;;;;;;;;21.80;49.60;;;;;;6347976;28;20053;-53
2023/04/18 07:57:57;;;;;;;4.93;3.88;;;21.90;46.60;;;;;;6347636;28;19927;-48
2023/04/18 08:00:58;;;;;;;;;;;21.50;49.40;;;;;;6352230;28;20457;-52
2023/04/18 08:04:04;;;;;;;3.88;3.47;;;21.50;49.40;;;;;;6352992;28;20394;-51
2023/04/18 08:07:05;;;;;;;4.65;3.50;;;21.70;46.00;;;;;;6351157;28;20044;-50
2023/04/18 08:10:07;;;;;;;;;;;21.90;49.20;;;;;;6351332;28;20044;-51
2023/04/18 08:13:11;;;;;;;4.35;3.92;;;21.90;49.40;;;;;;6351030;28;19924;-50
2023/04/18 08:16:13;;;;;;;4.15;3.75;;;21.90;47.30;;;;;;6351022;28;20046;-52
2023/04/18 08:19:19;;;;;;;3.67;3.38;;;21.60;48.90;;;;;;6350468;28;20096;-50
2023/04/18 08:22:20;;;;;;;3.78;3.47;;;22.10;48.90;;;;;;6350547;28;20096;-50
2023/04/18 08:25:22;;;;;;;4.45;4.05;;;22.00;48.90;;;;;;6351114;28;20559;-52
2023/04/18 08:28:23;;;;;;;;;;;21.70;48.10;;;;;;6351065;28;20039;-51
2023/04/18 08:31:25;;;;;;;3.47;3.17;;;22.00;48.80;;;;;;6349072;28;19954;-51
2023/04/18 08:34:28;;;;;;;4.25;3.85;;;22.00;48.40;;;;;;6351018;28;20039;-51
2023/04/18 08:37:30;;;;;;;3.85;3.45;;;21.90;48.50;;;;;;6350265;28;20387;-51
2023/04/18 08:40:32;;;;;;;3.25;2.95;;;21.80;48.40;;;;;;6350191;28;20086;-51
2023/04/18 08:43:33;;;;;;;3.95;3.60;;;21.70;48.50;;;;;;6351410;28;20044;-50
2023/04/18 08:46:35;;;;;;;3.40;3.10;;;22.00;48.40;;;;;;6349902;28;20048;-52
2023/04/18 08:49:37;;;;;;;3.25;2.90;;;22.10;48.50;;;;;;6350086;28;20075;-49
2023/04/18 08:52:44;;;;;;;3.53;3.22;;;23.90;49.20;;;;;;6350398;28;20503;-52
2023/04/18 08:55:46;;;;;;;3.45;3.15;;;22.10;48.10;;;;;;6348583;28;20089;-50
2023/04/18 08:58:49;;;;;;;3.25;2.95;;;22.10;48.20;;;;;;6349823;28;20050;-52
2023/04/18 09:01:55;;;;;;;3.40;3.10;;;21.80;47.90;;;;;;6351195;28;20387;-49
2023/04/18 09:05:09;;;;;;;3.35;3.05;;;21.80;47.60;;;;;;6349939;28;20046;-52
2023/04/18 09:08:22;;;;;;;3.75;3.20;;;21.90;47.70;;;;;;6349443;28;20051;-49
2023/04/18 09:11:27;;;;;;;3.67;3.08;;;22.20;47.70;;;;;;6349773;28;20043;-50
2023/04/18 09:14:29;;;;;;;3.20;2.90;;;21.90;47.50;;;;;;6348836;28;20090;-53
2023/04/18 09:17:32;;;;;;;2.95;2.65;;;22.20;47.40;;;;;;6349704;28;20051;-50
2023/04/18 09:20:40;;;;;;;3.33;3.03;;;22.10;47.40;;;;;;6349463;28;20048;-53
2023/04/18 09:23:41;;;;;;;3.40;3.10;;;22.20;47.50;;;;;;6348078;28;20067;-48
2023/04/18 09:26:42;;;;;;;;;;;22.20;47.70;;;;;;6350244;28;20101;-51
2023/04/18 09:29:48;;;;;;;3.97;2.78;;;22.60;48.10;;;;;;6349540;28;19920;-49
2023/04/18 09:32:59;;;;;;;2.92;2.65;;;21.90;47.30;;;;;;6349690;28;20043;-51
2023/04/18 09:36:19;;;;;;;3.00;2.70;;;22.20;47.30;;;;;;6331619;28;20044;-49
2023/04/18 09:39:26;;;;;;;3.20;2.80;;;21.90;47.10;;;;;;6348235;28;20063;-53
2023/04/18 09:42:35;;;;;;;2.50;2.25;;;22.00;47.00;;;;;;6348014;28;20050;-51
2023/04/18 09:45:38;;;;;;;2.45;2.25;;;22.20;46.90;;;;;;6348487;28;20036;-51
2023/04/18 09:48:40;;;;;;;2.92;2.63;;;22.20;46.60;;;;;;6349200;28;20043;-50
2023/04/18 09:51:43;;;;;;;2.85;2.65;;;22.10;46.70;;;;;;6347591;28;20051;-49
2023/04/18 09:54:46;;;;;;;2.88;2.60;;;21.90;46.40;;;;;;6349207;28;20495;-50
2023/04/18 09:57:51;;;;;;;2.60;2.20;;;22.30;46.70;;;;;;6349510;28;20035;-52
2023/04/18 10:00:55;;;;;;;2.85;2.50;;;22.10;46.60;;;;;;6349147;28;20088;-53
2023/04/18 10:04:02;;;;;;;2.80;2.55;;;22.30;46.80;;;;;;6348708;28;20070;-49
2023/04/18 10:07:06;;;;;;;2.90;2.60;;;22.40;46.80;;;;;;6350703;28;20036;-52
2023/04/18 10:10:08;;;;;;;3.03;2.60;;;22.40;46.90;;;;;;6349936;28;20042;-53
2023/04/18 10:13:10;;;;;;;2.88;2.67;;;22.50;47.30;;;;;;6348811;28;20043;-52
2023/04/18 10:16:13;;;;;;;2.72;2.40;;;23.00;46.80;;;;;;6349361;28;20093;-52
2023/04/18 10:19:22;;;;;;;3.08;2.70;;;22.40;46.20;;;;;;6349183;28;20048;-53
2023/04/18 10:22:27;;;;;;;2.50;2.30;;;22.20;45.70;;;;;;6331446;28;20040;-52
2023/04/18 10:25:47;;;;;;;4.22;3.13;;;22.50;45.60;;;;;;6347036;28;20167;-53
2023/04/18 10:28:51;;;;;;;3.10;2.80;;;22.10;45.50;;;;;;6348886;28;20046;-52
2023/04/18 10:31:53;;;;;;;2.92;2.72;;;22.20;45.50;;;;;;6346986;28;20036;-53
2023/04/18 10:34:55;;;;;;;2.80;2.53;;;22.20;45.50;;;;;;6347655;28;20067;-52
2023/04/18 10:38:00;;;;;;;3.25;2.63;;;22.50;45.40;;;;;;6348141;28;20039;-51
2023/04/18 10:41:15;;;;;;;2.67;2.45;;;22.50;45.50;;;;;;6347991;28;20047;-53
2023/04/18 10:44:21;;;;;;;2.70;2.50;;;22.30;45.10;;;;;;6346718;28;20050;-51
2023/04/18 10:47:23;;;;;;;2.83;2.42;;;22.20;44.90;;;;;;6346450;28;20126;-53
2023/04/18 10:50:24;;;;;;;3.08;2.70;;;22.40;44.90;;;;;;6347839;28;20047;-50
2023/04/18 10:53:26;;;;;;;3.20;2.90;;;22.20;45.20;;;;;;6347653;28;20380;-52
2023/04/18 10:56:28;;;;;;;3.00;2.80;;;22.50;45.00;;;;;;6348404;28;20048;-51
2023/04/18 10:59:31;;;;;;;2.72;2.53;;;22.60;45.00;;;;;;6347490;28;20077;-52
2023/04/18 11:02:34;;;;;;;2.92;2.72;;;22.60;45.00;;;;;;6347266;28;20043;-52
2023/04/18 11:05:36;;;;;;;3.03;2.70;;;22.50;45.20;;;;;;6347660;28;20039;-50
2023/04/18 11:08:41;;;;;;;2.90;2.60;;;22.80;45.10;;;;;;6347453;28;20048;-51
2023/04/18 11:11:43;;;;;;;3.17;2.88;;;22.80;45.00;;;;;;6347362;28;20089;-52
2023/04/18 11:14:47;;;;;;;2.92;2.70;;;22.60;44.90;;;;;;6347742;28;20031;-53
2023/04/18 11:18:01;;;;;;;2.65;2.45;;;22.50;44.80;;;;;;6347357;28;20039;-53
2023/04/18 11:21:04;;;;;;;2.60;2.35;;;22.50;41.60;;;;;;6311931;28;20150;-51
2023/04/18 11:24:07;;;;;;;2.70;2.50;;;22.60;45.00;;;;;;6346897;28;20047;-52
2023/04/18 11:27:10;;;;;;;2.25;2.05;;;22.70;43.00;;;;;;6346705;28;20050;-53
2023/04/18 11:30:13;;;;;;;2.53;2.33;;;22.40;44.50;;;;;;6347081;28;20053;-51
2023/04/18 11:33:15;;;;;;;3.28;2.30;;;22.60;44.50;;;;;;6345299;28;20050;-50
2023/04/18 11:36:17;;;;;;;2.50;2.30;;;22.70;44.50;;;;;;6347470;28;20035;-51
2023/04/18 11:39:19;;;;;;;2.42;2.22;;;22.70;44.50;;;;;;6347224;28;20526;-52
2023/04/18 11:42:25;;;;;;;2.15;1.95;;;22.80;44.40;;;;;;6346768;28;20036;-53
2023/04/18 11:45:27;;;;;;;2.55;2.15;;;22.80;44.30;;;;;;6346521;28;20467;-52
2023/04/18 11:48:34;;;;;;;2.45;2.25;;;22.70;44.20;;;;;;6344806;28;20036;-51
2023/04/18 11:51:37;;;;;;;2.35;2.15;;;22.70;44.00;;;;;;6346762;28;20059;-53
2023/04/18 11:54:40;;;;;;;2.40;2.20;;;22.80;43.90;;;;;;6347643;28;20468;-52
2023/04/18 11:57:48;;;;;;;2.90;2.60;;;22.50;43.70;;;;;;6345564;28;20059;-53
2023/04/18 12:00:49;;;;;;;2.53;2.33;;;22.90;43.90;;;;;;6346951;28;20081;-52
2023/04/18 12:04:06;;;;;;;2.00;1.80;;;22.40;43.60;;;;;;6346574;28;20046;-51
2023/04/18 12:07:08;;;;;;;2.35;2.10;;;22.60;43.80;;;;;;6345568;28;20495;-49
2023/04/18 12:10:24;;;;;;;2.38;2.17;;;22.40;43.40;;;;;;6346605;28;20052;-52
2023/04/18 12:13:31;;;;;;;2.47;2.28;;;22.70;43.70;;;;;;6346078;28;20066;-52
2023/04/18 12:16:32;;;;;;;1.90;1.77;;;22.70;43.50;;;;;;6346390;28;20119;-52
2023/04/18 12:19:36;;;;;;;2.35;2.15;;;22.90;43.70;;;;;;6346671;28;20040;-52
2023/04/18 12:22:40;;;;;;;2.40;2.20;;;22.80;43.50;;;;;;6346255;28;20035;-50
2023/04/18 12:25:57;;;;;;;2.10;1.90;;;22.60;43.00;;;;;;6346511;28;20051;-52
2023/04/18 12:29:00;;;;;;;2.40;2.20;;;22.70;42.90;;;;;;6345240;28;20042;-50
2023/04/18 12:32:01;;;;;;;2.00;1.80;;;22.80;42.90;;;;;;6345951;28;20130;-52
2023/04/18 12:35:03;;;;;;;2.20;2.00;;;22.80;42.80;;;;;;6346545;28;20075;-52
2023/04/18 12:38:05;;;;;;;2.22;2.03;;;22.80;42.60;;;;;;6346706;28;20482;-53
2023/04/18 12:41:07;;;;;;;2.50;2.30;;;22.50;42.00;;;;;;6345845;28;20159;-50
2023/04/18 12:44:09;;;;;;;3.08;2.10;;;22.60;42.40;;;;;;6345427;28;20047;-52
2023/04/18 12:47:10;;;;;;;;;;;22.80;42.20;;;;;;6351103;28;20085;-50
2023/04/18 12:50:15;;;;;;;2.22;2.00;;;23.20;43.00;;;;;;6350564;28;19920;-51
2023/04/18 12:53:17;;;;;;;2.95;2.00;;;23.00;42.30;;;;;;6350420;28;20047;-50
2023/04/18 12:56:19;;;;;;;2.20;2.00;;;23.10;42.50;;;;;;6350076;28;20040;-50
2023/04/18 12:59:21;;;;;;;1.70;1.60;;;23.00;42.00;;;;;;6349846;28;20089;-51
2023/04/18 13:02:22;;;;;;;;;;;22.80;42.10;;;;;;6350472;28;20048;-53
2023/04/18 13:05:26;;;;;;;2.33;1.95;;;22.90;42.20;;;;;;6349826;28;19920;-52
2023/04/18 13:08:30;;;;;;;2.08;1.88;;;23.00;42.00;;;;;;6349762;28;20411;-53
2023/04/18 13:11:32;;;;;;;2.28;2.00;;;22.90;42.10;;;;;;6349943;28;20059;-53
2023/04/18 13:14:33;;;;;;;2.38;2.17;;;23.00;42.10;;;;;;6349834;28;20059;-49
2023/04/18 13:17:37;;;;;;;2.67;2.35;;;22.70;42.10;;;;;;6349577;28;20411;-52
2023/04/18 13:20:38;;;;;;;2.40;2.20;;;23.10;41.90;;;;;;6314189;28;20046;-53
2023/04/18 13:23:40;;;;;;;2.40;2.20;;;23.00;41.80;;;;;;6349421;28;20169;-52
2023/04/18 13:26:42;;;;;;;2.58;2.10;;;23.00;42.10;;;;;;6349290;28;20393;-52
2023/04/18 13:29:46;;;;;;;2.78;2.47;;;22.70;41.60;;;;;;6349632;28;20048;-51
2023/04/18 13:32:48;;;;;;;2.30;2.10;;;22.90;41.90;;;;;;6349760;28;20043;-49
2023/04/18 13:35:49;;;;;;;2.85;2.22;;;23.10;41.40;;;;;;6349232;28;20036;-51
2023/04/18 13:38:50;;;;;;;;;;;22.80;41.80;;;;;;6349961;28;20047;-52
2023/04/18 13:41:53;;;;;;;2.40;2.17;;;22.60;41.50;;;;;;6349287;28;19920;-50
2023/04/18 13:44:58;;;;;;;2.30;2.10;;;23.00;41.80;;;;;;6349003;28;20043;-52
2023/04/18 13:48:00;;;;;;;2.60;1.92;;;22.70;41.40;;;;;;6348901;28;20044;-53
2023/04/18 13:51:01;;;;;;;;;;;23.10;41.80;;;;;;6349842;28;20544;-48
2023/04/18 13:54:03;;;;;;;2.22;2.00;;;23.20;42.10;;;;;;6348847;28;19919;-49
2023/04/18 13:57:10;;;;;;;2.30;2.05;;;22.70;41.60;;;;;;6347847;28;20044;-51
2023/04/18 14:00:13;;;;;;;2.03;1.83;;;23.20;41.40;;;;;;6349065;28;20039;-50
2023/04/18 14:03:14;;;;;;;2.38;2.13;;;23.10;41.60;;;;;;6348705;28;20048;-50
2023/04/18 14:06:16;;;;;;;3.30;2.40;;;23.20;41.80;;;;;;6348680;28;20506;-51
2023/04/18 14:09:17;;;;;;;2.45;2.22;;;23.10;41.90;;;;;;6348915;28;20044;-52
2023/04/18 14:12:22;;;;;;;2.28;2.08;;;23.20;41.80;;;;;;6349453;28;20036;-50
2023/04/18 14:15:24;;;;;;;3.35;2.25;;;23.20;41.80;;;;;;6349397;28;20039;-52
2023/04/18 14:18:25;;;;;;;1.98;1.73;;;23.10;41.30;;;;;;6348852;28;20046;-51
2023/04/18 14:21:28;;;;;;;2.15;1.90;;;23.30;41.80;;;;;;6348756;28;20048;-50
2023/04/18 14:24:29;;;;;;;3.80;2.00;;;23.30;41.50;;;;;;6348357;28;20036;-53
2023/04/18 14:27:31;;;;;;;2.65;2.45;;;23.30;41.60;;;;;;6349044;28;20044;-52
2023/04/18 14:30:33;;;;;;;2.70;2.50;;;23.30;41.50;;;;;;6348995;28;20114;-52
2023/04/18 14:33:34;;;;;;;;;;;22.90;41.30;;;;;;6349002;28;20440;-51
2023/04/18 14:36:36;;;;;;;2.10;1.90;;;23.10;41.80;;;;;;6348978;28;19927;-50
2023/04/18 14:39:37;;;;;;;2.28;2.08;;;23.20;41.80;;;;;;6348068;28;20399;-51
2023/04/18 14:42:39;;;;;;;2.58;1.83;;;23.30;41.60;;;;;;6347860;28;20044;-52
2023/04/18 14:45:41;;;;;;;2.05;1.95;;;23.40;42.00;;;;;;6347749;28;20411;-53
2023/04/18 14:48:45;;;;;;;2.65;2.20;;;23.20;41.90;;;;;;6348284;28;20039;-52
2023/04/18 14:51:46;;;;;;;2.17;1.98;;;22.90;41.80;;;;;;6346849;28;20129;-53
2023/04/18 14:54:48;;;;;;;2.13;1.92;;;22.90;41.80;;;;;;6347979;28;20035;-52
2023/04/18 14:57:53;;;;;;;1.95;1.77;;;23.30;42.40;;;;;;6347709;28;20068;-53
2023/04/18 15:00:55;;;;;;;2.03;1.83;;;23.30;41.60;;;;;;6347579;28;20044;-53
2023/04/18 15:03:56;;;;;;;2.25;1.85;;;23.30;42.30;;;;;;6348401;28;20067;-53
2023/04/18 15:06:58;;;;;;;2.38;1.83;;;23.20;42.20;;;;;;6348080;28;20039;-53
2023/04/18 15:10:01;;;;;;;1.70;1.60;;;23.20;42.80;;;;;;6346521;28;20052;-52
2023/04/18 15:13:04;;;;;;;2.63;1.92;;;23.40;42.80;;;;;;6348012;28;20059;-51
2023/04/18 15:16:06;;;;;;;1.60;1.50;;;23.00;42.80;;;;;;6347965;28;20490;-53
2023/04/18 15:19:07;;;;;;;1.67;1.50;;;23.40;43.30;;;;;;6347727;28;20071;-51
2023/04/18 15:22:09;;;;;;;1.73;1.60;;;23.40;43.90;;;;;;6347627;28;20504;-53
2023/04/18 15:25:15;;;;;;;1.77;1.45;;;23.00;44.20;;;;;;6347866;28;20047;-53
2023/04/18 15:28:18;;;;;;;1.92;1.60;;;23.20;45.10;;;;;;6347895;28;20113;-53
2023/04/18 15:31:22;;;;;;;2.80;1.63;;;23.30;45.30;;;;;;6347694;28;20461;-52
2023/04/18 15:34:23;;;;;;;1.55;1.45;;;23.20;45.90;;;;;;6347530;28;20040;-52
2023/04/18 15:37:25;;;;;;;;;;;23.30;46.30;;;;;;6347574;28;20043;-53
2023/04/18 15:40:26;;;;;;;2.20;1.45;;;23.50;45.60;;;;;;6346809;28;20048;-52
2023/04/18 15:43:28;;;;;;;1.65;1.50;;;23.20;46.20;;;;;;6347425;28;20043;-52
2023/04/18 15:46:35;;;;;;;1.77;1.67;;;23.00;46.70;;;;;;6346912;28;20040;-50
2023/04/18 15:49:38;;;;;;;1.58;1.35;;;23.20;46.90;;;;;;6311817;28;20057;-52
2023/04/18 15:52:40;;;;;;;;;;;23.30;47.30;;;;;;6347447;28;20094;-52
2023/04/18 15:55:41;;;;;;;1.40;1.30;;;23.30;46.80;;;;;;6346910;28;19942;-50
2023/04/18 15:58:43;;;;;;;;;;;23.20;47.10;;;;;;6347018;28;20040;-52
2023/04/18 16:01:48;;;;;;;1.50;1.33;;;23.20;47.30;;;;;;6346914;28;19919;-52
2023/04/18 16:04:49;;;;;;;1.40;1.30;;;23.10;47.10;;;;;;6346841;28;20063;-52